createdAt,value
2017-12-24T00:00:54.154Z,15.17
2017-12-24T00:03:23.744Z,15.77
2017-12-24T00:05:52.620Z,14.57
2017-12-24T00:08:21.709Z,14.70
2017-12-24T00:10:51.304Z,14.50
2017-12-24T00:13:19.809Z,13.87
2017-12-24T00:15:48.106Z,13.03
2017-12-24T00:18:16.353Z,12.47
2017-12-24T00:20:44.585Z,13.70
2017-12-24T00:23:14.229Z,12.43
2017-12-24T00:25:43.109Z,11.83
2017-12-24T00:28:11.371Z,11.57
2017-12-24T00:30:39.654Z,10.50
2017-12-24T00:33:09.397Z,9.93
2017-12-24T00:35:37.631Z,11.70
2017-12-24T00:38:05.906Z,11.60
2017-12-24T00:40:35.663Z,9.93
2017-12-24T00:43:03.919Z,11.03
2017-12-24T00:45:33.856Z,10.87
2017-12-24T00:48:02.373Z,10.60
2017-12-24T00:50:30.641Z,11.70
2017-12-24T00:53:00.296Z,10.50
2017-12-24T00:55:29.586Z,10.90
2017-12-24T00:57:57.832Z,10.73
2017-12-24T01:00:26.874Z,11.40
2017-12-24T01:02:55.882Z,10.50
2017-12-24T01:05:25.473Z,10.77
2017-12-24T01:07:54.384Z,11.23
2017-12-24T01:10:22.620Z,10.57
2017-12-24T01:12:50.875Z,10.17
2017-12-24T01:15:19.196Z,11.33
2017-12-24T01:17:48.811Z,10.33
2017-12-24T01:20:18.298Z,9.90
2017-12-24T01:22:47.792Z,10.83
2017-12-24T01:25:15.920Z,11.20
2017-12-24T01:27:45.290Z,10.00
2017-12-24T01:30:14.732Z,11.20
2017-12-24T01:32:44.323Z,9.97
2017-12-24T01:35:13.819Z,10.13
2017-12-24T01:37:41.959Z,10.40
2017-12-24T01:40:10.184Z,9.93
2017-12-24T01:42:38.453Z,10.90
2017-12-24T01:45:08.036Z,10.90
2017-12-24T01:47:48.343Z,9.93
2017-12-24T01:50:17.962Z,11.00
2017-12-24T01:52:46.477Z,10.83
2017-12-24T01:55:16.105Z,10.43
2017-12-24T01:57:45.025Z,10.33
2017-12-24T02:00:14.612Z,10.83
2017-12-24T02:02:44.128Z,11.50
2017-12-24T02:05:13.592Z,11.43
2017-12-24T02:07:42.859Z,10.30
2017-12-24T02:10:12.266Z,9.97
2017-12-24T02:12:41.266Z,11.00
2017-12-24T02:15:10.852Z,10.50
2017-12-24T02:17:40.136Z,10.47
2017-12-24T02:20:09.721Z,9.97
2017-12-24T02:22:39.173Z,9.13
2017-12-24T02:25:07.757Z,7.20
2017-12-24T02:27:35.998Z,7.30
2017-12-24T02:30:04.617Z,6.57
2017-12-24T02:32:32.900Z,5.60
2017-12-24T02:35:01.129Z,6.03
2017-12-24T02:37:29.368Z,4.40
2017-12-24T02:39:59.437Z,4.40
2017-12-24T02:42:28.929Z,4.93
2017-12-24T02:44:57.810Z,5.83
2017-12-24T02:47:26.860Z,4.63
2017-12-24T02:49:55.859Z,5.40
2017-12-24T02:52:24.853Z,4.03
2017-12-24T02:54:53.143Z,4.10
2017-12-24T02:57:21.368Z,4.50
2017-12-24T02:59:49.604Z,4.40
2017-12-24T03:02:17.964Z,4.10
2017-12-24T03:04:46.193Z,4.03
2017-12-24T03:07:15.567Z,4.50
2017-12-24T03:09:44.240Z,4.40
2017-12-24T03:12:13.830Z,4.30
2017-12-24T03:14:42.701Z,3.37
2017-12-24T03:17:10.961Z,4.17
2017-12-24T03:19:39.188Z,4.03
2017-12-24T03:22:08.778Z,4.07
2017-12-24T03:24:37.310Z,3.50
2017-12-24T03:27:07.195Z,4.07
2017-12-24T03:29:36.797Z,4.30
2017-12-24T03:32:04.920Z,3.77
2017-12-24T03:34:34.955Z,3.90
2017-12-24T03:37:03.270Z,3.90
2017-12-24T03:39:31.517Z,3.70
2017-12-24T03:42:01.255Z,3.33
2017-12-24T03:44:29.874Z,3.93
2017-12-24T03:46:59.643Z,4.70
2017-12-24T03:49:29.238Z,5.10
2017-12-24T03:51:58.620Z,4.70
2017-12-24T03:54:26.840Z,3.87
2017-12-24T03:56:56.587Z,4.60
2017-12-24T03:59:25.800Z,4.73
2017-12-24T04:01:54.457Z,4.90
2017-12-24T04:04:24.039Z,4.37
2017-12-24T04:06:52.932Z,4.83
2017-12-24T04:09:21.166Z,5.57
2017-12-24T04:11:49.405Z,6.13
2017-12-24T04:14:19.079Z,5.13
2017-12-24T04:16:47.947Z,5.23
2017-12-24T04:19:17.336Z,5.53
2017-12-24T04:21:45.623Z,5.77
2017-12-24T04:24:14.990Z,6.37
2017-12-24T04:26:43.231Z,6.07
2017-12-24T04:29:11.492Z,6.57
2017-12-24T04:31:39.725Z,5.80
2017-12-24T04:34:09.479Z,5.70
2017-12-24T04:36:37.751Z,6.20
2017-12-24T04:39:05.977Z,6.10
2017-12-24T04:41:34.225Z,5.57
2017-12-24T04:44:02.885Z,6.80
2017-12-24T04:46:32.653Z,6.40
2017-12-24T04:49:00.895Z,5.03
2017-12-24T04:51:29.219Z,5.60
2017-12-24T04:53:58.800Z,5.93
2017-12-24T04:56:27.686Z,6.30
2017-12-24T04:58:56.712Z,6.33
2017-12-24T05:01:24.956Z,6.20
2017-12-24T05:03:53.215Z,5.70
2017-12-24T05:06:21.490Z,6.20
2017-12-24T05:08:52.383Z,6.83
2017-12-24T05:11:21.291Z,6.27
2017-12-24T05:13:49.820Z,6.00
2017-12-24T05:16:18.067Z,5.93
2017-12-24T05:18:47.812Z,6.40
2017-12-24T05:21:16.076Z,5.67
2017-12-24T05:23:44.304Z,6.60
2017-12-24T05:26:13.884Z,6.10
2017-12-24T05:28:42.807Z,6.70
2017-12-24T05:31:12.178Z,5.63
2017-12-24T05:33:41.759Z,6.07
2017-12-24T05:36:10.337Z,6.50
2017-12-24T05:38:39.701Z,6.40
2017-12-24T05:41:09.273Z,6.17
2017-12-24T05:43:38.777Z,6.30
2017-12-24T05:46:06.891Z,6.63
2017-12-24T05:48:35.116Z,5.37
2017-12-24T05:51:04.885Z,6.40
2017-12-24T05:53:33.138Z,5.60
2017-12-24T05:56:01.377Z,5.67
2017-12-24T05:58:29.654Z,5.70
2017-12-24T06:00:59.241Z,5.53
2017-12-24T06:03:28.132Z,5.97
2017-12-24T06:05:56.401Z,5.50
2017-12-24T06:08:26.003Z,5.93
2017-12-24T06:10:54.511Z,5.03
2017-12-24T06:13:22.768Z,5.37
2017-12-24T06:15:50.996Z,5.00
2017-12-24T06:18:19.245Z,5.83
2017-12-24T06:20:48.884Z,5.97
2017-12-24T06:23:18.341Z,6.30
2017-12-24T06:25:47.219Z,5.53
2017-12-24T06:28:16.634Z,5.57
2017-12-24T06:30:44.867Z,6.80
2017-12-24T06:33:13.096Z,5.90
2017-12-24T06:38:17.257Z,5.70
2017-12-24T06:40:45.536Z,4.77
2017-12-24T06:43:14.157Z,5.87
2017-12-24T06:45:42.385Z,5.70
2017-12-24T06:48:10.665Z,5.90
2017-12-24T06:50:40.255Z,6.20
2017-12-24T06:53:09.761Z,4.37
2017-12-24T06:55:37.889Z,4.23
2017-12-24T06:58:06.115Z,5.07
2017-12-24T07:00:35.734Z,4.10
2017-12-24T07:03:04.269Z,5.00
2017-12-24T07:05:32.563Z,5.90
2017-12-24T07:08:00.811Z,5.43
2017-12-24T07:10:29.459Z,5.77
2017-12-24T07:12:59.419Z,6.50
2017-12-24T07:15:27.722Z,7.33
2017-12-24T07:17:55.955Z,7.90
2017-12-24T07:20:24.944Z,7.80
2017-12-24T07:22:53.213Z,8.00
2017-12-24T07:25:22.200Z,8.20
2017-12-24T07:27:51.941Z,8.40
2017-12-24T07:30:20.219Z,8.67
2017-12-24T07:32:48.476Z,8.63
2017-12-24T07:35:17.856Z,8.03
2017-12-24T07:37:47.470Z,7.50
2017-12-24T07:40:15.973Z,9.20
2017-12-24T07:42:44.213Z,9.20
2017-12-24T07:45:12.513Z,7.10
2017-12-24T07:47:40.749Z,6.60
2017-12-24T07:50:10.324Z,7.63
2017-12-24T07:52:39.811Z,5.80
2017-12-24T07:55:09.274Z,6.40
2017-12-24T07:57:38.724Z,6.17
2017-12-24T08:00:06.861Z,5.77
2017-12-24T08:02:35.084Z,5.30
2017-12-24T08:05:04.660Z,4.97
2017-12-24T08:07:34.153Z,5.33
2017-12-24T08:10:04.317Z,4.90
2017-12-24T08:12:33.936Z,5.00
2017-12-24T08:15:02.243Z,3.67
2017-12-24T08:17:30.493Z,5.13
2017-12-24T08:19:59.885Z,4.90
2017-12-24T08:22:29.646Z,5.10
2017-12-24T08:24:57.774Z,4.27
2017-12-24T08:27:26.001Z,4.70
2017-12-24T08:29:54.260Z,4.27
2017-12-24T08:32:22.503Z,4.90
2017-12-24T08:34:50.742Z,5.10
2017-12-24T08:37:20.509Z,5.27
2017-12-24T08:39:49.158Z,5.67
2017-12-24T08:42:17.409Z,5.13
2017-12-24T08:44:45.717Z,5.80
2017-12-24T08:47:15.082Z,5.87
2017-12-24T08:49:44.673Z,5.80
2017-12-24T08:52:14.316Z,6.93
2017-12-24T08:54:43.912Z,5.67
2017-12-24T08:57:12.025Z,5.53
2017-12-24T08:59:40.286Z,5.83
2017-12-24T09:02:09.654Z,5.23
2017-12-24T09:04:39.256Z,4.97
2017-12-24T09:07:07.781Z,5.10
2017-12-24T09:09:37.355Z,4.57
2017-12-24T09:12:07.208Z,4.77
2017-12-24T09:14:36.569Z,5.00
2017-12-24T09:17:06.340Z,4.70
2017-12-24T09:19:34.614Z,5.20
2017-12-24T09:22:02.858Z,5.30
2017-12-24T09:24:32.436Z,4.57
2017-12-24T09:27:01.014Z,3.93
2017-12-24T09:29:29.249Z,4.33
2017-12-24T09:31:57.475Z,4.33
2017-12-24T09:34:25.734Z,4.53
2017-12-24T09:36:55.299Z,3.90
2017-12-24T09:39:24.172Z,4.10
2017-12-24T09:41:53.789Z,4.87
2017-12-24T09:44:23.411Z,4.20
2017-12-24T09:46:51.702Z,4.40
2017-12-24T09:49:21.577Z,4.13
2017-12-24T09:51:49.688Z,4.33
2017-12-24T09:54:19.256Z,4.10
2017-12-24T09:56:48.786Z,4.23
2017-12-24T09:59:18.021Z,4.37
2017-12-24T10:01:46.266Z,3.70
2017-12-24T10:04:14.530Z,4.70
2017-12-24T10:06:42.754Z,4.27
2017-12-24T10:09:10.994Z,4.03
2017-12-24T10:11:39.265Z,4.60
2017-12-24T10:14:07.504Z,4.03
2017-12-24T10:16:35.765Z,4.10
2017-12-24T10:19:04.441Z,3.87
2017-12-24T10:21:34.207Z,4.33
2017-12-24T10:24:02.466Z,5.03
2017-12-24T10:26:31.529Z,4.30
2017-12-24T10:29:01.113Z,3.90
2017-12-24T10:31:29.670Z,3.60
2017-12-24T10:33:57.960Z,3.67
2017-12-24T10:36:27.535Z,4.40
2017-12-24T10:38:56.047Z,4.30
2017-12-24T10:41:25.660Z,3.63
2017-12-24T10:43:54.160Z,3.50
2017-12-24T10:46:22.798Z,3.20
2017-12-24T10:48:53.205Z,3.23
2017-12-24T10:51:22.949Z,3.70
2017-12-24T10:53:51.569Z,3.57
2017-12-24T10:56:19.874Z,3.20
2017-12-24T10:58:49.457Z,3.70
2017-12-24T11:01:18.910Z,3.50
2017-12-24T11:03:48.205Z,3.00
2017-12-24T11:06:17.201Z,3.50
2017-12-24T11:08:46.781Z,4.20
2017-12-24T11:11:16.622Z,3.33
2017-12-24T11:13:45.841Z,4.10
2017-12-24T11:16:15.454Z,4.50
2017-12-24T11:18:44.437Z,3.87
2017-12-24T11:21:14.026Z,3.73
2017-12-24T11:23:42.902Z,3.80
2017-12-24T11:26:12.679Z,3.40
2017-12-24T11:28:40.904Z,3.50
2017-12-24T11:31:10.663Z,3.50
2017-12-24T11:33:40.327Z,3.87
2017-12-24T11:36:09.207Z,3.83
2017-12-24T11:38:38.794Z,2.80
2017-12-24T11:41:08.291Z,3.87
2017-12-24T11:43:36.807Z,3.97
2017-12-24T11:46:05.796Z,4.00
2017-12-24T11:48:35.416Z,3.93
2017-12-24T11:51:04.307Z,3.90
2017-12-24T11:53:33.895Z,3.67
2017-12-24T11:56:02.054Z,4.33
2017-12-24T11:58:31.643Z,3.80
2017-12-24T12:01:01.109Z,4.03
2017-12-24T12:03:30.803Z,4.37
2017-12-24T12:06:00.388Z,4.33
2017-12-24T12:08:29.901Z,4.93
2017-12-24T12:10:59.399Z,4.00
2017-12-24T12:13:28.874Z,4.13
2017-12-24T12:15:57.027Z,4.47
2017-12-24T12:18:26.788Z,4.67
2017-12-24T12:20:55.012Z,4.90
2017-12-24T12:23:24.622Z,4.20
2017-12-24T12:25:54.092Z,4.40
2017-12-24T12:28:22.965Z,5.03
2017-12-24T12:30:52.597Z,4.50
2017-12-24T12:33:21.105Z,5.60
2017-12-24T12:35:49.333Z,5.23
2017-12-24T12:38:18.982Z,4.60
2017-12-24T12:40:47.487Z,4.77
2017-12-24T12:43:15.728Z,4.57
2017-12-24T12:45:44.391Z,4.70
2017-12-24T12:48:14.121Z,5.17
2017-12-24T12:50:42.358Z,4.13
2017-12-24T12:53:11.964Z,5.13
2017-12-24T12:55:40.466Z,4.27
2017-12-24T12:58:09.094Z,5.43
2017-12-24T13:00:40.820Z,4.67
2017-12-24T13:03:09.324Z,5.93
2017-12-24T13:05:38.896Z,4.53
2017-12-24T13:08:08.448Z,4.93
2017-12-24T13:10:36.909Z,3.90
2017-12-24T13:13:05.901Z,4.70
2017-12-24T13:15:34.980Z,5.50
2017-12-24T13:18:03.234Z,4.23
2017-12-24T13:20:32.832Z,4.30
2017-12-24T13:23:01.868Z,4.10
2017-12-24T13:25:30.122Z,4.40
2017-12-24T13:27:58.352Z,4.67
2017-12-24T13:30:26.617Z,4.93
2017-12-24T13:32:54.854Z,4.10
2017-12-24T13:35:24.597Z,4.30
2017-12-24T13:37:52.865Z,4.40
2017-12-24T13:40:22.596Z,4.43
2017-12-24T13:42:52.176Z,4.40
2017-12-24T13:45:21.683Z,4.93
2017-12-24T13:47:51.318Z,4.97
2017-12-24T13:50:19.552Z,4.40
2017-12-24T13:52:49.223Z,4.50
2017-12-24T13:55:18.679Z,4.40
2017-12-24T13:57:46.790Z,4.73
2017-12-24T14:00:15.453Z,4.00
2017-12-24T14:02:45.198Z,4.40
2017-12-24T14:05:14.809Z,4.40
2017-12-24T14:07:44.991Z,3.80
2017-12-24T14:10:14.216Z,4.30
2017-12-24T14:12:42.480Z,5.40
2017-12-24T14:15:12.107Z,3.67
2017-12-24T14:17:40.205Z,4.60
2017-12-24T14:20:09.196Z,4.70
2017-12-24T14:22:38.844Z,4.87
2017-12-24T14:25:08.301Z,3.90
2017-12-24T14:27:36.800Z,5.27
2017-12-24T14:30:07.641Z,5.53
2017-12-24T14:32:37.392Z,4.80
2017-12-24T14:35:05.612Z,5.20
2017-12-24T14:37:33.900Z,6.07
2017-12-24T14:40:02.913Z,5.13
2017-12-24T14:42:31.167Z,5.70
2017-12-24T14:44:59.483Z,5.33
2017-12-24T14:47:27.724Z,5.90
2017-12-24T14:49:57.463Z,6.03
2017-12-24T14:52:26.489Z,5.90
2017-12-24T14:54:55.485Z,5.23
2017-12-24T14:57:24.133Z,5.93
2017-12-24T14:59:52.420Z,6.17
2017-12-24T15:02:22.168Z,6.10
2017-12-24T15:04:50.437Z,5.30
2017-12-24T15:07:20.071Z,7.10
2017-12-24T15:09:49.338Z,5.80
2017-12-24T15:12:18.351Z,5.70
2017-12-24T15:14:47.981Z,5.27
2017-12-24T15:17:16.486Z,6.27
2017-12-24T15:19:46.072Z,6.27
2017-12-24T15:22:14.600Z,6.57
2017-12-24T15:24:45.004Z,7.33
2017-12-24T15:27:13.122Z,6.87
2017-12-24T15:29:41.747Z,6.50
2017-12-24T15:32:09.969Z,5.50
2017-12-24T15:34:39.334Z,6.60
2017-12-24T15:37:07.604Z,6.63
2017-12-24T15:39:37.172Z,7.00
2017-12-24T15:42:06.176Z,7.10
2017-12-24T15:44:34.554Z,7.33
2017-12-24T15:47:02.787Z,6.53
2017-12-24T15:49:32.408Z,7.40
2017-12-24T15:52:00.961Z,6.53
2017-12-24T15:54:30.674Z,7.53
2017-12-24T15:56:59.220Z,8.37
2017-12-24T15:59:28.364Z,8.10
2017-12-24T16:01:58.007Z,7.60
2017-12-24T16:04:27.241Z,7.60
2017-12-24T16:06:56.704Z,7.37
2017-12-24T16:09:24.936Z,7.57
2017-12-24T16:11:54.512Z,7.20
2017-12-24T16:14:24.011Z,8.50
2017-12-24T16:16:52.114Z,9.60
2017-12-24T16:19:21.695Z,8.67
2017-12-24T16:21:51.198Z,8.60
2017-12-24T16:24:20.450Z,7.80
2017-12-24T16:26:50.036Z,8.33
2017-12-24T16:29:18.211Z,9.20
2017-12-24T16:31:46.440Z,8.73
2017-12-24T16:34:14.685Z,8.63
2017-12-24T16:36:42.948Z,8.90
2017-12-24T16:39:12.308Z,8.00
2017-12-24T16:41:40.547Z,8.20
2017-12-24T16:44:08.867Z,7.70
2017-12-24T16:49:12.874Z,8.63
2017-12-24T16:51:41.101Z,8.00
2017-12-24T16:54:09.343Z,8.30
2017-12-24T16:56:38.943Z,8.10
2017-12-24T16:59:07.044Z,7.03
2017-12-24T17:01:35.272Z,8.57
2017-12-24T17:04:04.680Z,8.20
2017-12-24T17:06:34.288Z,7.70
2017-12-24T17:09:03.799Z,8.47
2017-12-24T17:11:32.306Z,7.93
2017-12-24T17:14:00.544Z,7.57
2017-12-24T17:16:30.010Z,7.60
2017-12-24T17:18:59.661Z,8.07
2017-12-24T17:21:28.156Z,7.47
2017-12-24T17:23:56.471Z,7.97
2017-12-24T17:26:24.707Z,7.40
2017-12-24T17:28:52.945Z,7.73
2017-12-24T17:31:22.567Z,8.20
2017-12-24T17:33:50.664Z,7.07
2017-12-24T17:36:19.295Z,7.77
2017-12-24T17:38:47.588Z,8.20
2017-12-24T17:41:16.969Z,7.73
2017-12-24T17:43:45.197Z,6.40
2017-12-24T17:46:14.808Z,6.63
2017-12-24T17:48:44.261Z,7.30
2017-12-24T17:51:12.387Z,8.27
2017-12-24T17:53:42.169Z,7.77
2017-12-24T17:56:10.417Z,8.33
2017-12-24T17:58:39.992Z,8.50
2017-12-24T18:01:09.489Z,8.63
2017-12-24T18:03:38.941Z,8.63
2017-12-24T18:06:08.388Z,9.33
2017-12-24T18:08:36.541Z,9.13
2017-12-24T18:11:04.787Z,9.00
2017-12-24T18:13:34.260Z,9.90
2017-12-24T18:16:03.524Z,10.37
2017-12-24T18:18:32.915Z,11.00
2017-12-24T18:21:02.694Z,11.50
2017-12-24T18:23:30.969Z,11.83
2017-12-24T18:25:59.226Z,11.30
2017-12-24T18:28:27.543Z,12.43
2017-12-24T18:30:57.204Z,13.37
2017-12-24T18:33:25.717Z,13.27
2017-12-24T18:35:54.349Z,13.17
2017-12-24T18:38:23.964Z,14.30
2017-12-24T18:40:52.556Z,15.27
2017-12-24T18:43:21.609Z,15.50
2017-12-24T18:45:50.735Z,14.53
2017-12-24T18:48:20.145Z,15.30
2017-12-24T18:50:49.937Z,19.33
2017-12-24T18:53:19.560Z,16.37
2017-12-24T18:55:48.445Z,12.57
2017-12-24T18:58:17.505Z,14.80
2017-12-24T19:00:47.629Z,14.40
2017-12-24T19:03:16.683Z,13.27
2017-12-24T19:05:45.774Z,16.93
2017-12-24T19:08:15.191Z,13.50
2017-12-24T19:10:43.544Z,11.50
2017-12-24T19:13:13.318Z,15.20
2017-12-24T19:15:42.772Z,13.70
2017-12-24T19:18:12.244Z,14.07
2017-12-24T19:20:43.484Z,11.37
2017-12-24T19:23:12.379Z,10.73
2017-12-24T19:25:42.044Z,12.37
2017-12-24T19:28:11.528Z,11.03
2017-12-24T19:30:40.036Z,11.60
2017-12-24T19:33:09.801Z,10.90
2017-12-24T19:35:38.148Z,12.97
2017-12-24T19:38:07.715Z,11.00
2017-12-24T19:40:37.187Z,9.87
2017-12-24T19:43:06.468Z,9.27
2017-12-24T19:45:34.721Z,11.80
2017-12-24T19:48:03.004Z,10.10
2017-12-24T19:50:31.333Z,11.67
2017-12-24T19:52:59.631Z,8.90
2017-12-24T19:55:27.956Z,9.70
2017-12-24T19:57:57.855Z,9.87
2017-12-24T20:00:26.089Z,9.73
2017-12-24T20:02:55.727Z,10.20
2017-12-24T20:05:26.882Z,7.50
2017-12-24T20:07:59.628Z,7.57
2017-12-24T20:10:29.243Z,7.73
2017-12-24T20:12:58.774Z,6.50
2017-12-24T20:15:28.107Z,7.33
2017-12-24T20:17:56.464Z,7.07
2017-12-24T20:20:24.831Z,6.63
2017-12-24T20:22:54.438Z,6.37
2017-12-24T20:25:22.619Z,6.90
2017-12-24T20:27:50.910Z,6.90
2017-12-24T20:30:20.678Z,6.60
2017-12-24T20:32:49.410Z,6.43
2017-12-24T20:35:17.645Z,6.47
2017-12-24T20:37:47.403Z,7.07
2017-12-24T20:40:15.941Z,6.30
2017-12-24T20:42:44.960Z,7.07
2017-12-24T20:45:14.629Z,7.20
2017-12-24T20:47:44.273Z,7.63
2017-12-24T20:50:13.959Z,7.23
2017-12-24T20:52:43.466Z,7.87
2017-12-24T20:55:12.952Z,6.93
2017-12-24T20:57:41.942Z,7.47
2017-12-24T21:00:10.217Z,7.53
2017-12-24T21:02:40.184Z,8.03
2017-12-24T21:05:09.715Z,7.53
2017-12-24T21:07:42.662Z,7.17
2017-12-24T21:10:12.142Z,7.53
2017-12-24T21:12:41.615Z,6.73
2017-12-24T21:15:11.294Z,6.93
2017-12-24T21:17:39.432Z,8.13
2017-12-24T21:20:08.996Z,8.00
2017-12-24T21:22:37.588Z,6.60
2017-12-24T21:25:07.226Z,6.13
2017-12-24T21:27:36.194Z,6.40
2017-12-24T21:30:05.858Z,5.67
2017-12-24T21:32:35.312Z,5.03
2017-12-24T21:35:04.919Z,5.20
2017-12-24T21:37:34.449Z,4.50
2017-12-24T21:40:03.889Z,5.80
2017-12-24T21:42:32.197Z,4.60
2017-12-24T21:45:00.500Z,5.03
2017-12-24T21:47:29.952Z,5.00
2017-12-24T21:49:58.945Z,4.90
2017-12-24T21:52:27.455Z,4.43
2017-12-24T21:54:56.492Z,5.00
2017-12-24T21:57:24.764Z,4.57
2017-12-24T21:59:53.101Z,4.90
2017-12-24T22:02:21.364Z,4.00
2017-12-24T22:04:49.728Z,4.47
2017-12-24T22:07:19.650Z,5.10
2017-12-24T22:09:49.273Z,4.00
2017-12-24T22:12:18.201Z,5.00
2017-12-24T22:14:47.406Z,4.23
2017-12-24T22:17:15.797Z,4.30
2017-12-24T22:19:45.588Z,5.00
2017-12-24T22:22:15.660Z,4.00
2017-12-24T22:24:45.437Z,5.30
2017-12-24T22:27:14.927Z,4.80
2017-12-24T22:29:44.261Z,5.30
2017-12-24T22:32:12.575Z,4.73
2017-12-24T22:34:42.409Z,4.73
2017-12-24T22:37:11.072Z,5.17
2017-12-24T22:39:39.384Z,5.90
2017-12-24T22:42:09.027Z,5.40
2017-12-24T22:44:37.728Z,6.37
2017-12-24T22:47:07.588Z,5.80
2017-12-24T22:49:37.241Z,6.13
2017-12-24T22:52:06.723Z,6.53
2017-12-24T22:54:34.878Z,6.20
2017-12-24T22:57:03.232Z,5.50
2017-12-24T22:59:31.450Z,6.03
2017-12-24T23:02:01.142Z,6.30
2017-12-24T23:04:29.715Z,5.67
2017-12-24T23:06:57.991Z,5.87
2017-12-24T23:09:27.787Z,6.17
2017-12-24T23:11:56.197Z,6.27
2017-12-24T23:14:24.485Z,5.63
2017-12-24T23:16:54.335Z,5.30
2017-12-24T23:19:22.630Z,4.70
2017-12-24T23:21:50.841Z,4.97
2017-12-24T23:24:19.114Z,5.17
2017-12-24T23:26:47.415Z,5.03
2017-12-24T23:29:16.579Z,5.30
2017-12-24T23:31:45.600Z,5.60
2017-12-24T23:34:15.262Z,4.60
2017-12-24T23:36:44.914Z,5.07
2017-12-24T23:39:13.307Z,5.10
2017-12-24T23:41:41.819Z,4.93
2017-12-24T23:44:11.201Z,5.30
2017-12-24T23:46:39.473Z,5.67
2017-12-24T23:49:07.795Z,4.90
2017-12-24T23:51:36.078Z,4.47
2017-12-24T23:54:04.330Z,4.93
2017-12-24T23:56:33.997Z,4.77
2017-12-24T23:59:02.899Z,5.30
